Garden Spring, Nevada Weather observations

Data are for 10 minute period ending at time listed.
 Day   Time    Ave.   Ave.  Ave.  Vector   Max.   Stn.    Total    Solar   Ave.  
  of    of     Air    Rel.  Wind   Wind    Wind   Baro.  Precip.   Rad.    Soil  
Year   Day     Temp.  Hum.  Speed  Dir.    Gust   Pres.                    Temp. 
2014   (PST)    F      %     mph   deg.    mph     mb.     in.     W/m2     F    
--------------------------------------------------------------------------------- 
 109   19:00   64.4    25    3.7   239      6.2   851.4    0.00       4    71.8  
 109   20:00   62.1    28    3.2   224      8.2   852.1    0.00       0    70.9  
 109   21:00   58.9    30    3.3   288      6.0   852.6    0.00       0    69.7  
 109   22:00   57.5    32    3.6   280      6.3   852.9    0.00       0    68.7  
 109   23:00   56.5    34    4.4   276      6.8   853.0    0.00       0    67.5  
 110    0:00   55.7    36    4.2   273      5.6   853.0    0.00       0    66.5  
 110    1:00   54.6    38    4.4   282      6.8   853.1    0.00       0    65.5  
 110    2:00   52.9    41    4.8   265      6.7   853.2    0.00       0    64.5  
 110    3:00   53.2    41    3.9   264      5.3   853.4    0.00       0    63.8  
 110    4:00   55.0    39    3.7   266      5.7   853.3    0.00       0    63.1  
 110    5:00   54.5    41    3.5   285      5.6   853.6    0.00       1    62.5  
 110    6:00   55.3    41    2.8   269      4.6   854.3    0.00      63    62.0  
 110    7:00   65.1    31    2.0    56      5.8   854.7    0.00     260    62.4  
 110    8:00   67.1    31    4.1   124      9.3   854.9    0.00     468    62.4  
 110    9:00   69.0    29    5.3   146     10.7   855.1    0.00     652    62.7  
 110   10:00   72.0    25    6.1   169     15.0   855.2    0.00     814    63.6  
 110   11:00   74.7    22    5.5   262     16.9   855.0    0.00     916    64.4  
 110   12:00   75.3    21    5.5   254     12.6   854.6    0.00     898    65.4  
 110   13:00   76.7    19    6.4   222     17.4   854.2    0.00     932    67.8  
 110   14:00   77.7    17    8.1   219     18.5   853.6    0.00     865    70.7  
 110   15:00   78.2    17    7.5   217     18.5   853.2    0.00     738    73.0  
 110   16:00   78.3    16    6.5   232     16.1   853.0    0.00     534    74.4  
 110   17:00   76.7    17    5.7   226     14.5   852.9    0.00     288    74.8  
 110   18:00   73.9    20    4.8   225     12.8   853.0    0.00      80    74.5  

Return to Garden Spring, Nevada graphs page.


Western Regional Climate Center,wrcc@dri.edu